This is the latest recevied weather packets stored in our database for station/object KT1D-13. If no packets are shown the sender has not sent any weather packets the latest 10 day(s).
| Time | Temp. | Humidity | Pressure | Rain* | Wind** | Luminosity | Snow |
|---|---|---|---|---|---|---|---|
| 1777327540 | 16.67° C | 45% | 1024 hPa | 0 mm | - | 207 W/m² | - |
| 1777313717 | 17.78° C | 45% | 1024.2 hPa | 0 mm | - | 871 W/m² | - |
| 1777313118 | 17.22° C | 45% | 1024.1 hPa | 0 mm | - | 885 W/m² | - |
| 1777310158 | 17.22° C | 45% | 1024.1 hPa | 0 mm | - | 928 W/m² | - |
| 1777307119 | 17.22° C | 45% | 1024.4 hPa | 0 mm | - | 923 W/m² | - |
| 1777304720 | 16.67° C | 45% | 1024.6 hPa | 0 mm | - | 886 W/m² | - |
| 1777301720 | 15.56° C | 47% | 1024.8 hPa | 0 mm | - | 800 W/m² | - |
| 1777301121 | 15.56° C | 47% | 1024.7 hPa | 0 mm | - | 777 W/m² | - |
| 1777300520 | 15.56° C | 48% | 1024.7 hPa | 0 mm | - | 756 W/m² | - |
| 1777299921 | 15° C | 49% | 1024.8 hPa | 0 mm | - | 730 W/m² | - |
| 1777291540 | 8.89° C | 69% | 1024.3 hPa | 0 mm | - | 303 W/m² | - |
| 1777289120 | 6.11° C | 81% | 1023.8 hPa | 0 mm | - | 177 W/m² | - |
| 1777284321 | 2.22° C | 90% | 1022.9 hPa | 0 mm | - | 15 W/m² | - |
| 1777280722 | 2.78° C | 88% | 1022.2 hPa | 0 mm | - | 0 W/m² | - |
| 1777278324 | 2.78° C | 88% | 1021.9 hPa | 0 mm | - | 0 W/m² | - |
| 1777275324 | 3.89° C | 85% | 1021.6 hPa | 0 mm | - | 0 W/m² | - |
| 1777273524 | 3.89° C | 85% | 1021.3 hPa | 0 mm | - | 0 W/m² | - |
| 1777272925 | 3.89° C | 84% | 1021.2 hPa | 0 mm | - | 0 W/m² | - |
| 1777265727 | 5° C | 78% | 1021.7 hPa | 0 mm | - | 0 W/m² | - |
| 1777259728 | 6.67° C | 71% | 1021.4 hPa | 0 mm | - | 0 W/m² | - |
| 1777257329 | 7.22° C | 68% | 1021.4 hPa | 0 mm | - | 0 W/m² | - |
| 1777251950 | 9.44° C | 60% | 1021.1 hPa | 0 mm | - | 0 W/m² | - |
| 1777250731 | 10° C | 57% | 1021 hPa | 0 mm | - | 0 W/m² | - |
| 1777248951 | 11.67° C | 49% | 1020.7 hPa | 0 mm | - | 0 W/m² | - |
| 1777248317 | 12.22° C | 49% | 1020.6 hPa | 0 mm | - | 0 W/m² | - |
* Rain latest hour (hover to see other rain measurements)
** Current wind speed in m/s (hover to see current wind gust speed)